Latest Coastal Weather Observations for Brisbane Airport

IDQ60701

Issued at 12:12 pm EST Monday 23 January 2017 (issued every 10 minutes, with the page automatically refreshed every 10 minutes)

About coastal observations | Map of coastal stations | Coastal observations for QLD | Marine services | Other Formats
Station Details ID: 040842 Name: BRISBANE AERO Lat: -27.39 Lon: 153.13 Height: 4.51 m
Data from the previous 72 hours. | See also: Recent months at Brisbane Airport
Date/Time
EST
Temp
°C
Wind Pressure Rain since
9am
mm
Weather Cloud Vis
km
Sea
Height
m
Swell
Dir  Spd
kts
Gust
kts
hPa Trend Height
m
Period
s
Dir
23/12:00pm 27.2 NE 10 15 1016.1 R 0.0 Fine Partly cloudy 30 - - - -
23/11:30am 27.2 E 7 11 1016.3 - 0.0 - Partly cloudy 10 - - - -
23/11:00am 27.0 ENE 7 12 1016.6 - 0.0 - Partly cloudy 10 - - - -
23/10:30am 26.7 ESE 6 9 1016.9 - 0.0 - Partly cloudy 10 - - - -
23/10:00am 26.2 E 5 10 1017.0 - 0.0 - Mostly clear 10 - - - -
23/09:30am 26.1 E 6 9 1017.1 - 0.0 - Mostly clear 10 - - - -
23/09:00am 25.8 ESE 5 8 1017.0 R 0.0 Fine Mostly cloudy 30 - - - -
23/08:30am 25.4 SE 5 7 1016.9 - 0.0 - Mostly clear 10 - - - -
23/08:00am 24.9 SSE 5 7 1016.7 - 0.0 - Mostly clear 10 - - - -
23/07:30am 24.1 S 5 7 1016.7 - 0.0 - Cloudy 10 - - - -
23/07:00am 23.6 S 5 6 1016.7 - 0.0 - Cloudy 10 - - - -
23/06:30am 23.1 SSW 6 7 1016.4 - 0.0 - Cloudy 10 - - - -
23/06:00am 22.7 ESE 6 8 1015.9 R 0.0 Fine Mostly cloudy 30 - - - -
23/05:30am 22.4 SE 2 6 1015.5 - 0.0 - Mostly cloudy 10 - - - -
23/05:00am 22.3 S 5 7 1015.4 - 0.0 - Mostly cloudy 10 - - - -
23/04:30am 23.1 E 6 8 1015.1 - 0.0 - Mostly clear 10 - - - -
23/04:00am 23.7 E 7 11 1015.0 - 0.0 - Mostly clear 10 - - - -
23/03:30am 22.6 E 4 8 1014.9 - 0.0 - Partly cloudy 10 - - - -
23/03:00am 22.4 E 5 8 1014.8 R 0.0 Fine Mostly cloudy 30 - - - -
23/02:30am 23.3 E 5 7 1014.8 - 0.0 - Mostly clear 10 - - - -
23/02:00am 23.8 SE 6 9 1015.0 - 0.0 - Mostly clear 10 - - - -
23/01:30am 24.0 E 7 12 1015.1 - 0.0 - Mostly clear 10 - - - -
23/01:00am 24.0 ESE 7 14 1015.3 - 0.0 - Mostly clear 10 - - - -
23/12:30am 23.9 ESE 6 10 1015.6 - 0.0 - Mostly clear 10 - - - -
23/12:00am 23.8 ESE 7 11 1015.7 F 0.0 Fine Mostly clear 30 - - - -
 
Date/Time
EST
Temp
°C
Wind Pressure Rain since
9am
mm
Weather Cloud Vis
km
Sea
Height
m
Swell
Dir  Spd
kts
Gust
kts
hPa Trend Height
m
Period
s
Dir
22/11:30pm 23.9 ESE 8 13 1015.9 - 0.0 - Mostly clear 10 - - - -
22/11:00pm 24.0 ESE 8 12 1016.1 - 0.0 - Mostly clear 10 - - - -
22/10:30pm 24.4 ESE 7 11 1016.3 - 0.0 - Mostly clear 10 - - - -
22/10:00pm 24.5 ESE 6 10 1016.5 - 0.0 - Mostly clear 10 - - - -
22/09:30pm 24.6 ESE 8 12 1016.5 - 0.0 - Partly cloudy 10 - - - -
22/09:00pm 24.7 ESE 9 14 1016.4 F 0.0 Fine Partly cloudy 30 - - - -
22/08:30pm 24.7 E 8 13 1016.2 - 0.0 - Mostly clear 10 - - - -
22/08:00pm 24.6 ESE 8 13 1016.1 - 0.0 - Partly cloudy 10 - - - -
22/07:30pm 24.7 ESE 8 15 1015.9 - 0.0 - Partly cloudy 10 - - - -
22/07:00pm 24.8 ESE 8 13 1015.8 - 0.0 - Partly cloudy 10 - - - -
22/06:30pm 25.0 ESE 8 14 1015.6 - 0.0 - Partly cloudy 10 - - - -
22/06:00pm 25.2 ESE 7 12 1015.1 F 0.0 Fine Partly cloudy 30 - - - -
22/05:30pm 25.4 ESE 8 14 1014.8 - 0.0 - Partly cloudy 10 - - - -
22/05:00pm 26.1 ESE 8 15 1014.4 - 0.0 - Partly cloudy 10 - - - -
22/04:30pm 25.8 ESE 10 16 1014.4 - 0.0 - Partly cloudy 10 - - - -
22/04:00pm 26.5 ESE 11 17 1014.3 - 0.0 - Mostly clear 10 - - - -
22/03:30pm 27.0 ESE 9 17 1014.5 - 0.0 - Mostly clear 10 - - - -
22/03:00pm 27.0 ESE 12 19 1014.7 S 0.0 Fine Partly cloudy 30 - - - -
22/02:30pm 27.0 ESE 12 19 1014.9 - 0.0 - Mostly clear 10 - - - -
22/02:00pm 26.3 ESE 10 19 1015.0 - 0.0 - Partly cloudy 10 - - - -
22/01:30pm 26.1 ESE 12 18 1015.2 - 0.0 - Partly cloudy 10 - - - -
22/01:00pm 26.4 ESE 10 17 1015.4 - 0.0 - Partly cloudy 10 - - - -
22/12:30pm 26.4 ESE 11 17 1015.7 - 0.0 - Partly cloudy 10 - - - -
22/12:00pm 26.8 ESE 11 17 1015.9 R 0.0 Fine Mostly cloudy 30 - - - -
22/11:30am 27.3 ESE 12 19 1016.0 - 0.0 - Partly cloudy 10 - - - -
22/11:00am 27.1 ESE 13 19 1016.0 - 0.0 - Mostly clear 10 - - - -
22/10:30am 27.2 SE 10 17 1016.3 - 0.0 - Mostly clear 10 - - - -
22/10:00am 27.0 SE 12 18 1016.3 - 0.0 - Mostly clear 10 - - - -
22/09:30am 25.8 SE 9 16 1016.3 - 0.0 - Mostly clear 10 - - - -
22/09:00am 25.5 SE 10 17 1016.2 R 10.8 Fine Mostly cloudy 25 - - - -
22/08:30am 25.5 SE 11 18 1016.1 - 10.8 - Mostly clear 10 - - - -
22/08:00am 25.1 SE 9 15 1015.9 - 10.8 - Mostly clear 10 - - - -
22/07:30am 24.5 SSE 8 13 1015.7 - 10.8 - Mostly clear 10 - - - -
22/07:00am 24.0 S 6 9 1015.6 - 10.8 - Mostly clear 10 - - - -
22/06:30am 23.8 S 6 8 1015.4 - 10.8 - Mostly clear 10 - - - -
22/06:00am 22.8 SSW 6 9 1015.1 R 10.8 Fine Partly cloudy 20 - - - -
22/05:30am 22.4 SSW 6 7 1014.7 - 10.8 - Mostly clear 10 - - - -
22/05:00am 22.5 SSW 5 7 1014.1 - 10.8 - Mostly clear 10 - - - -
22/04:30am 22.4 SSW 6 9 1013.7 - 10.8 - Mostly clear 10 - - - -
22/04:00am 22.2 S 6 9 1013.3 - 10.8 - Mostly clear 10 - - - -
22/03:30am 22.1 SSE 8 14 1013.1 - 10.8 Drizzle Mostly clear 10 - - - -
22/03:00am 22.7 S 8 14 1013.1 R 10.8 Showers Mostly cloudy 14 - - - -
22/02:30am 22.8 S 7 11 1013.1 - 10.8 - Mostly clear 10 - - - -
22/02:00am 22.7 S 7 12 1012.9 - 10.8 - Mostly clear 10 - - - -
22/01:30am 22.6 SSE 7 13 1013.0 - 10.8 - Mostly clear 10 - - - -
22/01:00am 22.9 S 5 7 1013.1 - 10.8 - Mostly clear 10 - - - -
22/12:30am 22.9 S 7 10 1013.3 - 10.8 - Mostly clear 10 - - - -
22/12:00am 23.2 S 9 14 1013.4 R 10.8 Fine Mostly cloudy 20 - - - -
 
Date/Time
EST
Temp
°C
Wind Pressure Rain since
9am
mm
Weather Cloud Vis
km
Sea
Height
m
Swell
Dir  Spd
kts
Gust
kts
hPa Trend Height
m
Period
s
Dir
21/11:30pm 23.3 SSE 7 10 1013.5 - 10.8 - Mostly clear 10 - - - -
21/11:00pm 23.3 S 8 13 1013.8 - 10.8 - Mostly clear 10 - - - -
21/10:30pm 23.3 SSE 6 10 1013.9 - 10.8 - Mostly clear 10 - - - -
21/10:00pm 23.4 SSE 8 12 1013.8 - 10.8 - Mostly clear 10 - - - -
21/09:30pm 23.5 SSE 9 17 1013.6 - 10.8 - Mostly clear 10 - - - -
21/09:00pm 24.1 SSE 8 15 1013.2 R 10.8 Fine Mostly cloudy 18 - - - -
21/08:30pm 24.2 SSE 8 14 1012.7 - 10.8 - Mostly clear 10 - - - -
21/08:00pm 24.2 SE 10 16 1012.5 - 10.8 - Mostly clear 10 - - - -
21/07:30pm 24.3 SSE 8 15 1011.7 - 10.6 Drizzle Partly cloudy 10 - - - -
21/07:00pm 24.2 SE 9 17 1011.3 - 10.6 - Partly cloudy 10 - - - -
21/06:30pm 24.5 SE 11 18 1010.7 - 10.6 Showers Partly cloudy 10 - - - -
21/06:23pm 24.2 SE 10 16 1010.5 - 10.6 Showers Partly cloudy 10 - - - -
21/06:00pm 23.8 SSE 10 18 1010.2 R 10.6 Showers Cloudy 9 - - - -
21/05:30pm 23.8 SE 13 22 1009.8 - 9.4 Showers Partly cloudy 4 - - - -
21/05:00pm 24.8 SE 13 20 1008.9 - 9.0 - Partly cloudy 10 - - - -
21/04:30pm 24.9 SE 11 20 1008.6 - 9.0 - Partly cloudy 10 - - - -
21/04:00pm 24.7 SE 11 18 1008.3 - 9.0 - Mostly cloudy 10 - - - -
21/03:30pm 24.5 SE 11 21 1008.1 - 9.0 - Partly cloudy 10 - - - -
21/03:00pm 24.3 SE 11 19 1008.0 R 6.8 Showers Cloudy 2 - - - -
21/02:37pm 25.0 SE 14 24 1008.0 - 1.0 Showers Partly cloudy 3 - - - -
21/02:30pm 25.4 ESE 15 26 1007.9 - 0.0 Showers Partly cloudy 9 - - - -
21/02:00pm 26.9 ESE 16 26 1007.5 - 0.0 - Mostly clear 10 - - - -
21/01:30pm 28.6 ESE 17 27 1007.0 - 0.0 - Mostly clear 10 - - - -
21/01:03pm 27.8 ESE 16 26 1007.1 - 0.0 - Mostly clear 10 - - - -
21/01:00pm 28.0 ESE 16 24 1007.2 - 0.0 - Mostly clear 10 - - - -
21/12:33pm 28.8 ESE 15 25 1006.9 - 0.0 - Mostly clear 10 - - - -
21/12:30pm 28.9 ESE 14 24 1006.9 - 0.0 - Mostly clear 10 - - - -
21/12:00pm 30.2 ESE 14 22 1006.8 R 0.0 Haze Mostly cloudy 20 - - - -
21/11:30am 32.1 SSE 7 9 1007.0 - 0.0 - Partly cloudy 10 - - - -
21/11:00am 32.5 S 6 9 1006.9 - 0.0 - Mostly clear 10 - - - -
21/10:30am 32.9 W 7 11 1006.8 - 0.0 - Mostly clear 10 - - - -
21/10:00am 32.4 W 9 11 1006.7 - 0.0 - Mostly clear 10 - - - -
21/09:30am 31.8 WSW 9 15 1006.6 - 0.0 - Mostly clear 10 - - - -
21/09:00am 31.6 W 8 14 1006.5 R 0.0 Fine Mostly cloudy 30 - - - -
21/08:30am 31.2 W 7 13 1006.3 - 0.0 - Cloudy 10 - - - -
21/08:00am 30.9 WNW 9 11 1006.1 - 0.0 - Partly cloudy 10 - - - -
21/07:30am 30.9 NW 7 10 1006.0 - 0.0 - - 10 - - - -
21/07:00am 30.0 WNW 4 7 1005.8 - 0.0 - - 10 - - - -
21/06:30am 29.5 WNW 5 7 1005.6 - 0.0 - Mostly clear 10 - - - -
21/06:00am 28.8 WSW 6 8 1005.4 R 0.0 Distant precip. Mostly cloudy 20 - - - -
21/05:30am 29.1 SW 9 12 1005.0 - 0.0 - Mostly clear 10 - - - -
21/05:00am 28.0 CALM 0 0 1004.7 - 0.0 - Mostly clear 10 - - - -
21/04:30am 28.0 NW 5 5 1004.2 - 0.0 - Mostly clear 10 - - - -
21/04:00am 27.9 NW 4 6 1003.6 - 0.0 - Mostly clear 10 - - - -
21/03:30am 28.0 NW 5 6 1003.3 - 0.0 - Cloudy 10 - - - -
21/03:00am 28.0 NW 5 8 1002.9 R 0.0 Smoke Partly cloudy 16 - - - -
21/02:30am 28.3 NNW 4 5 1002.8 - 0.0 - Cloudy 10 - - - -
21/02:00am 28.4 NNW 6 8 1002.9 - 0.0 - Cloudy 10 - - - -
21/01:30am 28.3 N 7 9 1002.8 - 0.0 - Cloudy 10 - - - -
21/01:00am 28.2 NNW 6 15 1002.9 - 0.0 - Cloudy 10 - - - -
21/12:30am 27.7 CALM 0 3 1003.1 - 0.0 - Partly cloudy 10 - - - -
21/12:00am 27.7 NW 4 4 1003.5 F 0.0 Smoke Mostly cloudy 18 - - - -
 
Date/Time
EST
Temp
°C
Wind Pressure Rain since
9am
mm
Weather Cloud Vis
km
Sea
Height
m
Swell
Dir  Spd
kts
Gust
kts
hPa Trend Height
m
Period
s
Dir
20/11:30pm 27.8 NNW 2 4 1003.7 - 0.0 - - 10 - - - -
20/11:00pm 27.6 W 5 5 1004.0 - 0.0 - - 10 - - - -
20/10:30pm 28.0 CALM 0 4 1004.4 - 0.0 - Partly cloudy 10 - - - -
20/10:00pm 28.7 SSE 2 7 1004.5 - 0.0 - Partly cloudy 10 - - - -
20/09:30pm 28.3 N 5 8 1004.6 - 0.0 - - 10 - - - -
20/09:00pm 29.2 SSW 8 13 1004.5 F 0.0 Smoke Mostly cloudy 18 - - - -
20/08:30pm 28.6 N 14 18 1003.3 - 0.0 - Partly cloudy 10 - - - -
20/08:00pm 28.4 N 15 20 1002.7 - 0.0 - - 10 - - - -
20/07:30pm 28.1 N 18 22 1002.7 - 0.0 - - 10 - - - -
20/07:00pm 28.0 N 17 24 1003.0 - 0.0 - - 10 - - - -
20/06:30pm 28.0 N 18 23 1003.0 - 0.0 - - 10 - - - -
20/06:00pm 28.0 N 18 24 1003.0 F 0.0 Haze Partly cloudy 12 - - - -
20/05:30pm 28.4 NNE 20 25 1002.9 - 0.0 - - 10 - - - -
20/05:00pm 28.5 NNE 20 26 1002.5 - 0.0 - - 10 - - - -
20/04:30pm 28.9 NNE 18 24 1002.7 - 0.0 - - 10 - - - -
20/04:00pm 29.1 NNE 18 21 1002.8 - 0.0 - Mostly clear 10 - - - -
20/03:30pm 29.5 NNE 17 22 1003.2 - 0.0 - Mostly clear 10 - - - -
20/03:00pm 29.3 NNE 18 21 1003.4 F 0.0 Haze Mostly clear 20 - - - -
20/02:30pm 30.1 NNE 18 21 1004.0 - 0.0 - Mostly clear 10 - - - -
20/02:00pm 30.1 NNE 15 19 1004.6 - 0.0 - Mostly clear 10 - - - -
20/01:30pm 29.5 NNE 17 21 1004.8 - 0.0 - Mostly clear 10 - - - -
20/01:00pm 30.9 NNE 15 18 1005.7 - 0.0 - Mostly clear 10 - - - -
20/12:30pm 30.8 NE 13 16 1006.4 - 0.0 - Mostly clear 10 - - - -

Other Formats:

Comma delimited format used in spreadsheet applications
http://www.bom.gov.au/fwo/IDQ60701/IDQ60701.94578.axf

JavaScript Object Notation format (JSON) in row-major order
http://www.bom.gov.au/fwo/IDQ60701/IDQ60701.94578.json